createdAt,value
2019-04-21T00:00:35.586Z,49.20
2019-04-21T00:03:13.161Z,48.80
2019-04-21T00:05:58.554Z,48.80
2019-04-21T00:08:33.641Z,50.00
2019-04-21T00:11:03.012Z,49.50
2019-04-21T00:13:23.338Z,50.40
2019-04-21T00:15:48.931Z,50.20
2019-04-21T00:18:40.835Z,49.70
2019-04-21T00:21:13.827Z,50.20
2019-04-21T00:23:53.794Z,50.40
2019-04-21T00:26:24.241Z,50.10
2019-04-21T00:29:05.135Z,49.80
2019-04-21T00:31:24.649Z,50.40
2019-04-21T00:33:44.439Z,50.10
2019-04-21T00:36:18.560Z,50.70
2019-04-21T00:39:15.768Z,51.70
2019-04-21T00:41:38.016Z,51.00
2019-04-21T00:44:00.650Z,50.80
2019-04-21T00:46:30.763Z,50.60
2019-04-21T00:49:06.130Z,50.50
2019-04-21T00:51:55.446Z,51.90
2019-04-21T00:54:33.287Z,51.40
2019-04-21T00:56:56.908Z,51.50
2019-04-21T00:59:25.626Z,51.10
2019-04-21T01:01:56.606Z,51.20
2019-04-21T01:04:30.478Z,51.80
2019-04-21T01:07:05.277Z,52.10
2019-04-21T01:09:27.555Z,52.20
2019-04-21T01:12:02.082Z,52.30
2019-04-21T01:14:45.309Z,52.50
2019-04-21T01:17:10.873Z,52.20
2019-04-21T01:19:33.224Z,52.60
2019-04-21T01:21:48.119Z,53.30
2019-04-21T01:24:24.590Z,54.20
2019-04-21T01:27:01.023Z,54.30
2019-04-21T01:29:42.807Z,54.30
2019-04-21T01:32:19.373Z,53.40
2019-04-21T01:34:45.375Z,52.60
2019-04-21T01:37:15.822Z,52.80
2019-04-21T01:39:53.336Z,53.00
2019-04-21T01:42:18.875Z,53.50
2019-04-21T01:44:52.278Z,53.20
2019-04-21T01:47:15.812Z,53.10
2019-04-21T01:49:43.003Z,53.10
2019-04-21T01:52:34.540Z,53.20
2019-04-21T01:55:12.641Z,53.50
2019-04-21T01:57:45.258Z,52.80
2019-04-21T02:00:14.836Z,53.40
2019-04-21T02:03:04.282Z,53.80
2019-04-21T02:05:32.693Z,53.90
2019-04-21T02:07:55.070Z,54.20
2019-04-21T02:10:34.701Z,54.40
2019-04-21T02:13:07.134Z,54.90
2019-04-21T02:15:36.500Z,54.90
2019-04-21T02:18:08.939Z,55.50
2019-04-21T02:20:30.504Z,56.10
2019-04-21T02:25:38.524Z,56.60
2019-04-21T02:28:12.498Z,56.10
2019-04-21T02:31:02.475Z,56.40
2019-04-21T02:36:00.653Z,56.60
2019-04-21T02:38:34.437Z,56.10
2019-04-21T02:43:24.957Z,56.90
2019-04-21T02:46:06.989Z,57.10
2019-04-21T02:48:38.289Z,57.40
2019-04-21T02:50:57.617Z,57.80
2019-04-21T02:53:48.155Z,57.90
2019-04-21T02:56:08.825Z,56.90
2019-04-21T03:01:31.883Z,57.30
2019-04-21T03:04:04.917Z,58.50
2019-04-21T03:06:59.954Z,59.50
2019-04-21T03:09:24.415Z,58.50
2019-04-21T03:12:01.566Z,57.50
2019-04-21T03:16:47.148Z,57.40
2019-04-21T03:19:39.815Z,57.60
2019-04-21T03:21:59.249Z,57.60
2019-04-21T03:24:43.687Z,57.90
2019-04-21T03:32:40.170Z,57.70
2019-04-21T03:37:06.970Z,58.00
2019-04-21T03:39:47.028Z,59.50
2019-04-21T03:42:19.870Z,59.10
2019-04-21T03:45:15.049Z,58.60
2019-04-21T03:47:20.766Z,59.30
2019-04-21T03:49:54.298Z,59.40
2019-04-21T03:52:20.086Z,58.40
2019-04-21T03:55:48.708Z,59.30
2019-04-21T04:06:03.666Z,59.70
2019-04-21T04:14:06.338Z,59.80
2019-04-21T04:16:18.842Z,59.70
2019-04-21T04:19:09.467Z,60.70
2019-04-21T04:21:30.847Z,61.20
2019-04-21T04:26:25.400Z,60.30
2019-04-21T04:28:56.320Z,60.70
2019-04-21T04:31:31.922Z,60.70
2019-04-21T04:34:10.003Z,61.00
2019-04-21T04:39:35.838Z,60.70
2019-04-21T04:42:12.591Z,61.30
2019-04-21T04:47:12.274Z,62.50
2019-04-21T04:49:49.629Z,62.00
2019-04-21T04:52:31.399Z,61.80
2019-04-21T04:57:34.305Z,62.70
2019-04-21T05:02:30.459Z,62.60
2019-04-21T05:04:55.222Z,62.60
2019-04-21T05:07:23.487Z,63.10
2019-04-21T05:12:15.858Z,63.00
2019-04-21T05:14:51.877Z,62.70
2019-04-21T05:17:28.817Z,63.10
2019-04-21T05:22:21.967Z,63.30
2019-04-21T05:24:52.363Z,63.10
2019-04-21T05:27:33.555Z,63.80
2019-04-21T05:30:17.295Z,64.60
2019-04-21T05:32:48.309Z,63.80
2019-04-21T05:35:23.200Z,64.60
2019-04-21T05:38:01.412Z,63.90
2019-04-21T05:40:22.198Z,63.90
2019-04-21T05:43:03.361Z,64.00
2019-04-21T05:45:33.545Z,65.30
2019-04-21T05:50:32.592Z,65.90
2019-04-21T05:53:17.677Z,65.00
2019-04-21T05:55:46.688Z,64.50
2019-04-21T05:58:08.450Z,64.60
2019-04-21T06:01:06.457Z,64.20
2019-04-21T06:03:29.569Z,65.00
2019-04-21T06:08:18.133Z,63.50
2019-04-21T06:10:58.425Z,63.10
2019-04-21T06:13:26.501Z,62.20
2019-04-21T06:15:56.228Z,62.20
2019-04-21T06:18:35.400Z,62.50
2019-04-21T06:20:59.748Z,62.00
2019-04-21T06:23:30.262Z,61.50
2019-04-21T06:26:20.014Z,60.70
2019-04-21T06:28:40.156Z,61.10
2019-04-21T06:31:12.515Z,61.10
2019-04-21T06:33:43.151Z,61.10
2019-04-21T06:36:31.901Z,61.40
2019-04-21T06:39:01.843Z,61.40
2019-04-21T06:41:27.638Z,62.00
2019-04-21T06:44:02.639Z,61.40
2019-04-21T06:46:33.408Z,62.30
2019-04-21T06:56:37.699Z,62.80
2019-04-21T06:59:00.826Z,61.70
2019-04-21T07:01:36.027Z,62.40
2019-04-21T07:04:13.346Z,62.10
2019-04-21T07:06:42.615Z,62.60
2019-04-21T07:09:18.430Z,61.40
2019-04-21T07:11:38.151Z,61.60
2019-04-21T07:14:29.435Z,62.10
2019-04-21T07:16:49.730Z,61.10
2019-04-21T07:21:48.291Z,61.00
2019-04-21T07:24:22.601Z,61.40
2019-04-21T07:26:44.776Z,61.60
2019-04-21T07:29:21.873Z,60.60
2019-04-21T07:31:55.553Z,60.90
2019-04-21T07:34:22.963Z,60.00
2019-04-21T07:39:18.106Z,60.70
2019-04-21T07:41:48.427Z,60.30
2019-04-21T07:44:17.099Z,60.90
2019-04-21T07:46:47.212Z,60.20
2019-04-21T07:49:40.023Z,60.00
2019-04-21T07:52:28.607Z,59.90
2019-04-21T07:55:15.303Z,59.70
2019-04-21T07:57:23.435Z,59.60
2019-04-21T08:02:38.576Z,60.20
2019-04-21T08:05:23.868Z,59.50
2019-04-21T08:07:48.019Z,59.70
2019-04-21T08:10:03.424Z,59.30
2019-04-21T08:12:37.973Z,58.20
2019-04-21T08:15:15.661Z,57.90
2019-04-21T08:17:41.360Z,59.30
2019-04-21T08:20:12.253Z,60.60
2019-04-21T08:22:51.075Z,56.70
2019-04-21T08:25:18.201Z,56.30
2019-04-21T08:30:22.673Z,56.80
2019-04-21T08:35:49.507Z,55.70
2019-04-21T08:37:48.522Z,56.30
2019-04-21T08:40:34.131Z,56.00
2019-04-21T08:43:20.497Z,55.40
2019-04-21T08:45:40.531Z,56.60
2019-04-21T08:48:07.319Z,54.00
2019-04-21T08:50:30.656Z,55.80
2019-04-21T08:53:11.355Z,53.60
2019-04-21T08:55:40.114Z,53.00
2019-04-21T08:58:24.811Z,51.90
2019-04-21T09:01:08.836Z,53.70
2019-04-21T09:03:57.052Z,52.70
2019-04-21T09:06:40.259Z,51.40
2019-04-21T09:09:01.631Z,49.80
2019-04-21T09:11:22.598Z,47.50
2019-04-21T09:13:54.828Z,46.30
2019-04-21T09:16:26.439Z,47.60
2019-04-21T09:18:57.673Z,47.10
2019-04-21T09:21:43.699Z,47.00
2019-04-21T09:24:13.060Z,44.90
2019-04-21T09:26:43.215Z,43.90
2019-04-21T09:29:04.377Z,42.70
2019-04-21T09:31:33.932Z,43.70
2019-04-21T09:34:01.165Z,42.10
2019-04-21T09:36:38.961Z,42.90
2019-04-21T09:39:10.810Z,41.70
2019-04-21T09:41:36.406Z,41.50
2019-04-21T09:44:08.729Z,40.70
2019-04-21T09:46:44.929Z,39.50
2019-04-21T09:49:12.643Z,41.70
2019-04-21T09:51:39.673Z,38.20
2019-04-21T09:54:16.909Z,37.70
2019-04-21T09:56:52.383Z,39.00
2019-04-21T09:59:20.694Z,37.10
2019-04-21T10:01:54.953Z,37.70
2019-04-21T10:04:18.719Z,36.70
2019-04-21T10:06:50.067Z,35.40
2019-04-21T10:09:21.343Z,37.00
2019-04-21T10:11:52.615Z,36.10
2019-04-21T10:14:22.487Z,36.10
2019-04-21T10:16:54.039Z,36.30
2019-04-21T10:19:25.556Z,36.40
2019-04-21T10:21:56.230Z,35.40
2019-04-21T10:24:28.412Z,33.90
2019-04-21T10:26:58.979Z,34.70
2019-04-21T10:29:31.285Z,33.00
2019-04-21T10:31:59.711Z,33.00
2019-04-21T10:34:29.389Z,33.30
2019-04-21T10:36:58.864Z,35.40
2019-04-21T10:39:29.417Z,34.10
2019-04-21T10:41:59.583Z,32.30
2019-04-21T10:44:29.551Z,31.80
2019-04-21T10:47:00.568Z,32.00
2019-04-21T10:49:30.759Z,32.10
2019-04-21T10:52:01.852Z,30.90
2019-04-21T10:54:49.212Z,31.00
2019-04-21T10:57:04.288Z,30.60
2019-04-21T10:59:33.654Z,29.70
2019-04-21T11:02:05.128Z,31.50
2019-04-21T11:04:38.222Z,30.90
2019-04-21T11:07:13.521Z,32.90
2019-04-21T11:09:40.182Z,32.50
2019-04-21T11:12:11.441Z,30.70
2019-04-21T11:14:41.169Z,29.50
2019-04-21T11:17:12.276Z,30.90
2019-04-21T11:19:43.023Z,32.30
2019-04-21T11:22:12.691Z,28.90
2019-04-21T11:24:43.019Z,29.00
2019-04-21T11:27:12.869Z,29.00
2019-04-21T11:29:43.277Z,29.60
2019-04-21T11:32:12.834Z,30.00
2019-04-21T11:34:43.152Z,29.50
2019-04-21T11:37:14.342Z,29.10
2019-04-21T11:39:52.121Z,29.40
2019-04-21T11:42:19.558Z,29.00
2019-04-21T11:44:49.429Z,30.60
2019-04-21T11:47:30.323Z,30.60
2019-04-21T11:50:01.087Z,30.00
2019-04-21T11:52:31.243Z,28.50
2019-04-21T11:55:02.780Z,29.00
2019-04-21T11:57:36.708Z,29.30
2019-04-21T12:00:03.892Z,29.10
2019-04-21T12:02:35.336Z,28.90
2019-04-21T12:05:07.917Z,29.40
2019-04-21T12:07:37.611Z,28.50
2019-04-21T12:10:09.227Z,28.20
2019-04-21T12:12:39.258Z,28.00
2019-04-21T12:15:11.221Z,27.80
2019-04-21T12:17:41.708Z,28.10
2019-04-21T12:20:12.696Z,26.90
2019-04-21T12:22:43.317Z,26.80
2019-04-21T12:25:18.761Z,28.10
2019-04-21T12:27:48.225Z,27.50
2019-04-21T12:30:18.104Z,26.00
2019-04-21T12:32:49.094Z,27.10
2019-04-21T12:35:19.688Z,27.00
2019-04-21T12:37:53.174Z,25.80
2019-04-21T12:40:26.313Z,25.90
2019-04-21T12:42:56.806Z,26.70
2019-04-21T12:45:26.350Z,26.20
2019-04-21T12:47:55.961Z,26.10
2019-04-21T12:50:25.851Z,25.70
2019-04-21T12:52:55.836Z,25.30
2019-04-21T12:55:30.511Z,25.00
2019-04-21T12:57:57.266Z,26.00
2019-04-21T13:00:27.002Z,25.40
2019-04-21T13:02:56.531Z,24.50
2019-04-21T13:05:25.924Z,23.90
2019-04-21T13:07:55.294Z,25.00
2019-04-21T13:10:24.803Z,24.80
2019-04-21T13:12:54.400Z,24.70
2019-04-21T13:15:25.263Z,24.40
2019-04-21T13:17:56.233Z,24.70
2019-04-21T13:20:25.804Z,24.50
2019-04-21T13:22:55.268Z,24.40
2019-04-21T13:25:25.614Z,23.60
2019-04-21T13:27:56.423Z,24.40
2019-04-21T13:30:26.392Z,24.60
2019-04-21T13:32:58.564Z,22.70
2019-04-21T13:35:27.057Z,23.00
2019-04-21T13:37:56.391Z,24.40
2019-04-21T13:41:01.031Z,24.10
2019-04-21T13:43:17.043Z,23.30
2019-04-21T13:45:47.802Z,22.30
2019-04-21T13:48:18.798Z,22.90
2019-04-21T13:50:49.480Z,22.70
2019-04-21T13:53:18.851Z,23.20
2019-04-21T13:55:48.675Z,22.70
2019-04-21T13:58:18.195Z,23.00
2019-04-21T14:00:50.085Z,23.20
2019-04-21T14:03:21.672Z,23.10
2019-04-21T14:05:52.109Z,23.20
2019-04-21T14:08:23.211Z,22.20
2019-04-21T14:10:53.591Z,22.70
2019-04-21T14:13:24.385Z,23.80
2019-04-21T14:15:55.972Z,23.20
2019-04-21T14:18:28.859Z,22.10
2019-04-21T14:20:58.743Z,23.10
2019-04-21T14:23:33.530Z,23.00
2019-04-21T14:26:01.759Z,22.80
2019-04-21T14:28:33.708Z,22.10
2019-04-21T14:31:04.308Z,23.70
2019-04-21T14:33:36.171Z,22.00
2019-04-21T14:36:05.838Z,23.10
2019-04-21T14:38:36.543Z,23.00
2019-04-21T14:41:08.264Z,22.30
2019-04-21T14:43:38.483Z,21.80
2019-04-21T14:46:15.637Z,22.80
2019-04-21T14:48:57.239Z,22.50
2019-04-21T14:51:45.567Z,23.10
2019-04-21T14:54:20.582Z,22.40
2019-04-21T14:56:53.395Z,22.80
2019-04-21T14:59:23.234Z,22.10
2019-04-21T15:01:53.652Z,22.70
2019-04-21T15:04:24.203Z,22.50
2019-04-21T15:06:54.901Z,23.10
2019-04-21T15:09:25.267Z,22.50
2019-04-21T15:11:56.032Z,23.10
2019-04-21T15:14:26.296Z,23.30
2019-04-21T15:16:56.817Z,22.70
2019-04-21T15:19:26.588Z,21.60
2019-04-21T15:21:56.688Z,21.60
2019-04-21T15:24:26.773Z,23.80
2019-04-21T15:26:57.103Z,22.30
2019-04-21T15:29:26.820Z,22.20
2019-04-21T15:31:56.848Z,23.30
2019-04-21T15:34:27.385Z,22.90
2019-04-21T15:36:57.999Z,23.20
2019-04-21T15:39:28.079Z,23.30
2019-04-21T15:41:58.870Z,22.70
2019-04-21T15:44:28.340Z,22.80
2019-04-21T15:46:57.885Z,22.00
2019-04-21T15:49:40.643Z,23.80
2019-04-21T15:52:01.940Z,23.20
2019-04-21T15:54:32.370Z,22.90
2019-04-21T15:57:04.780Z,22.70
2019-04-21T15:59:36.818Z,23.50
2019-04-21T16:02:26.571Z,24.10
2019-04-21T16:04:58.997Z,24.60
2019-04-21T16:07:29.805Z,23.10
2019-04-21T16:10:02.305Z,24.20
2019-04-21T16:12:33.898Z,24.10
2019-04-21T16:15:04.988Z,24.00
2019-04-21T16:17:35.309Z,23.90
2019-04-21T16:20:08.002Z,23.70
2019-04-21T16:22:38.823Z,23.30
2019-04-21T16:25:10.763Z,23.90
2019-04-21T16:27:41.411Z,24.20
2019-04-21T16:30:12.179Z,23.60
2019-04-21T16:32:42.055Z,23.20
2019-04-21T16:35:14.507Z,24.20
2019-04-21T16:37:44.064Z,23.40
2019-04-21T16:40:14.091Z,24.10
2019-04-21T16:42:43.537Z,23.90
2019-04-21T16:45:14.784Z,24.00
2019-04-21T16:47:47.382Z,24.40
2019-04-21T16:50:16.235Z,24.70
2019-04-21T16:52:48.027Z,24.10
2019-04-21T16:55:19.261Z,24.10
2019-04-21T16:58:06.815Z,23.90
2019-04-21T17:00:35.205Z,24.00
2019-04-21T17:02:58.781Z,25.00
2019-04-21T17:05:28.427Z,25.00
2019-04-21T17:07:59.615Z,24.60
2019-04-21T17:10:30.644Z,24.60
2019-04-21T17:13:00.143Z,25.60
2019-04-21T17:15:50.674Z,25.60
2019-04-21T17:18:20.260Z,25.70
2019-04-21T17:20:42.934Z,25.40
2019-04-21T17:23:07.091Z,25.10
2019-04-21T17:25:37.067Z,25.70
2019-04-21T17:28:07.822Z,25.40
2019-04-21T17:30:37.735Z,25.60
2019-04-21T17:33:10.244Z,26.10
2019-04-21T17:35:38.664Z,26.70
2019-04-21T17:38:09.991Z,26.90
2019-04-21T17:40:40.022Z,26.60
2019-04-21T17:43:14.346Z,26.90
2019-04-21T17:45:41.422Z,28.00
2019-04-21T17:48:14.934Z,28.10
2019-04-21T17:50:57.289Z,27.90
2019-04-21T17:53:38.198Z,28.50
2019-04-21T17:56:23.480Z,28.80
2019-04-21T17:59:01.449Z,29.20
2019-04-21T18:01:35.888Z,29.90
2019-04-21T18:04:03.787Z,30.00
2019-04-21T18:09:05.718Z,30.00
2019-04-21T18:11:39.562Z,30.90
2019-04-21T18:13:49.550Z,30.20
2019-04-21T18:16:28.917Z,30.80
2019-04-21T18:18:50.741Z,31.00
2019-04-21T18:21:40.216Z,31.40
2019-04-21T18:24:15.608Z,31.70
2019-04-21T18:26:51.042Z,31.90
2019-04-21T18:29:12.077Z,31.60
2019-04-21T18:31:48.040Z,31.60
2019-04-21T18:34:34.251Z,32.00
2019-04-21T18:37:14.720Z,32.20
2019-04-21T18:39:55.855Z,33.00
2019-04-21T18:42:47.916Z,33.00
2019-04-21T18:45:45.522Z,33.40
2019-04-21T18:48:02.637Z,33.20
2019-04-21T18:50:46.306Z,33.80
2019-04-21T18:53:36.499Z,33.60
2019-04-21T18:55:56.245Z,33.90
2019-04-21T18:58:24.177Z,34.20
2019-04-21T19:00:53.308Z,34.20
2019-04-21T19:03:33.941Z,33.90
2019-04-21T19:06:08.769Z,33.80
2019-04-21T19:08:54.932Z,34.10
2019-04-21T19:11:24.037Z,34.20
2019-04-21T19:14:20.986Z,34.10
2019-04-21T19:17:01.067Z,33.90
2019-04-21T19:19:36.588Z,34.30
2019-04-21T19:21:51.897Z,35.10
2019-04-21T19:24:31.985Z,35.60
2019-04-21T19:27:19.344Z,35.70
2019-04-21T19:29:35.413Z,35.40
2019-04-21T19:32:08.418Z,36.10
2019-04-21T19:34:25.987Z,36.50
2019-04-21T19:37:00.790Z,36.30
2019-04-21T19:39:39.195Z,36.60
2019-04-21T19:42:07.186Z,36.70
2019-04-21T19:44:47.117Z,37.00
2019-04-21T19:47:15.207Z,37.40
2019-04-21T19:49:51.311Z,37.30
2019-04-21T19:52:09.448Z,37.30
2019-04-21T19:54:39.710Z,37.80
2019-04-21T19:57:07.012Z,38.20
2019-04-21T19:59:44.678Z,38.10
2019-04-21T20:02:08.976Z,37.50
2019-04-21T20:04:47.941Z,37.90
2019-04-21T20:07:23.442Z,37.80
2019-04-21T20:09:57.527Z,37.60
2019-04-21T20:12:36.561Z,37.90
2019-04-21T20:15:10.796Z,37.80
2019-04-21T20:17:40.788Z,37.90
2019-04-21T20:19:50.096Z,38.30
2019-04-21T20:22:24.020Z,38.50
2019-04-21T20:25:01.418Z,38.80
2019-04-21T20:27:34.776Z,38.70
2019-04-21T20:30:21.770Z,38.60
2019-04-21T20:32:49.300Z,38.70
2019-04-21T20:35:35.130Z,38.70
2019-04-21T20:37:57.657Z,38.70
2019-04-21T20:40:25.330Z,39.80
2019-04-21T20:43:08.208Z,39.20
2019-04-21T20:46:00.585Z,39.70
2019-04-21T20:48:08.199Z,39.70
2019-04-21T20:50:41.814Z,40.10
2019-04-21T20:53:46.547Z,39.70
2019-04-21T20:56:19.444Z,39.40
2019-04-21T20:58:55.726Z,39.80
2019-04-21T21:01:35.884Z,40.20
2019-04-21T21:03:57.842Z,40.50
2019-04-21T21:06:35.267Z,40.50
2019-04-21T21:09:10.316Z,41.00
2019-04-21T21:11:45.136Z,41.00
2019-04-21T21:14:17.595Z,41.40
2019-04-21T21:16:53.660Z,41.40
2019-04-21T21:19:38.151Z,41.10
2019-04-21T21:21:44.490Z,40.80
2019-04-21T21:24:27.292Z,41.60
2019-04-21T21:26:54.605Z,41.10
2019-04-21T21:29:29.152Z,41.10
2019-04-21T21:32:06.762Z,41.10
2019-04-21T21:34:35.510Z,41.20
2019-04-21T21:37:04.300Z,41.20
2019-04-21T21:39:39.487Z,41.50
2019-04-21T21:41:50.970Z,42.00
2019-04-21T21:44:21.248Z,41.80
2019-04-21T21:47:00.492Z,41.30
2019-04-21T21:49:35.551Z,41.40
2019-04-21T21:52:04.466Z,41.50
2019-04-21T21:54:23.263Z,41.60
2019-04-21T21:56:52.683Z,41.80
2019-04-21T21:59:26.428Z,41.40
2019-04-21T22:01:54.887Z,41.40
2019-04-21T22:04:28.855Z,41.40
2019-04-21T22:07:04.627Z,41.70
2019-04-21T22:09:32.344Z,41.70
2019-04-21T22:12:05.191Z,41.70
2019-04-21T22:14:41.639Z,41.70
2019-04-21T22:17:27.530Z,41.40
2019-04-21T22:20:00.360Z,41.30
2019-04-21T22:22:23.133Z,41.80
2019-04-21T22:24:53.419Z,42.20
2019-04-21T22:27:12.867Z,42.60
2019-04-21T22:29:49.223Z,42.90
2019-04-21T22:32:25.003Z,42.70
2019-04-21T22:34:56.535Z,42.90
2019-04-21T22:37:35.037Z,42.50
2019-04-21T22:40:04.463Z,42.40
2019-04-21T22:42:30.193Z,42.00
2019-04-21T22:44:56.720Z,41.90
2019-04-21T22:47:32.274Z,41.80
2019-04-21T22:49:57.199Z,42.10
2019-04-21T22:52:29.603Z,42.20
2019-04-21T22:55:03.231Z,42.00
2019-04-21T22:57:36.468Z,42.30
2019-04-21T23:00:03.901Z,42.10
2019-04-21T23:02:35.430Z,42.30
2019-04-21T23:05:07.832Z,42.30
2019-04-21T23:07:44.115Z,42.30
2019-04-21T23:10:09.423Z,42.10
2019-04-21T23:12:41.790Z,42.00
2019-04-21T23:15:16.569Z,41.90
2019-04-21T23:18:00.797Z,41.50
2019-04-21T23:20:31.589Z,41.60
2019-04-21T23:23:15.137Z,41.80
2019-04-21T23:25:36.656Z,41.60
2019-04-21T23:28:09.218Z,41.50
2019-04-21T23:30:45.819Z,42.10
2019-04-21T23:33:02.387Z,42.40
2019-04-21T23:35:34.250Z,42.50
2019-04-21T23:38:02.993Z,42.60
2019-04-21T23:40:30.807Z,42.30
2019-04-21T23:43:07.748Z,43.20
2019-04-21T23:45:35.974Z,43.30
2019-04-21T23:48:14.427Z,43.70
2019-04-21T23:50:41.907Z,43.30
2019-04-21T23:53:03.862Z,43.00
2019-04-21T23:55:34.915Z,42.80
2019-04-21T23:58:09.979Z,43.40
